sensor_id;sensor_type;location;lat;lon;timestamp;P1;durP1;ratioP1;P2;durP2;ratioP2
19814;SDS011;10067;53.092;8.800;2023-04-28T00:01:29;24.33;;;16.87;;
19814;SDS011;10067;53.092;8.800;2023-04-28T00:03:55;27.03;;;17.07;;
19814;SDS011;10067;53.092;8.800;2023-04-28T00:06:23;28.10;;;16.57;;
19814;SDS011;10067;53.092;8.800;2023-04-28T00:08:50;23.40;;;15.27;;
19814;SDS011;10067;53.092;8.800;2023-04-28T00:11:17;23.97;;;17.20;;
19814;SDS011;10067;53.092;8.800;2023-04-28T00:13:43;22.50;;;16.47;;
19814;SDS011;10067;53.092;8.800;2023-04-28T00:16:10;25.07;;;16.53;;
19814;SDS011;10067;53.092;8.800;2023-04-28T00:18:36;24.10;;;15.97;;
19814;SDS011;10067;53.092;8.800;2023-04-28T00:21:02;26.17;;;17.00;;
19814;SDS011;10067;53.092;8.800;2023-04-28T00:23:29;27.50;;;17.13;;
19814;SDS011;10067;53.092;8.800;2023-04-28T00:25:57;24.93;;;15.70;;
19814;SDS011;10067;53.092;8.800;2023-04-28T00:28:23;22.80;;;16.73;;
19814;SDS011;10067;53.092;8.800;2023-04-28T00:30:50;23.73;;;16.87;;
19814;SDS011;10067;53.092;8.800;2023-04-28T00:33:16;25.83;;;17.63;;
19814;SDS011;10067;53.092;8.800;2023-04-28T00:35:42;23.97;;;17.17;;
19814;SDS011;10067;53.092;8.800;2023-04-28T00:38:09;25.70;;;17.73;;
19814;SDS011;10067;53.092;8.800;2023-04-28T00:40:35;28.47;;;17.90;;
19814;SDS011;10067;53.092;8.800;2023-04-28T00:43:03;26.97;;;18.17;;
19814;SDS011;10067;53.092;8.800;2023-04-28T00:45:30;25.30;;;17.07;;
19814;SDS011;10067;53.092;8.800;2023-04-28T00:47:56;26.90;;;18.03;;
19814;SDS011;10067;53.092;8.800;2023-04-28T00:50:23;29.77;;;17.70;;
19814;SDS011;10067;53.092;8.800;2023-04-28T00:52:50;29.17;;;18.53;;
19814;SDS011;10067;53.092;8.800;2023-04-28T00:55:18;29.60;;;18.30;;
19814;SDS011;10067;53.092;8.800;2023-04-28T00:57:45;28.13;;;18.30;;
19814;SDS011;10067;53.092;8.800;2023-04-28T01:00:13;28.03;;;17.30;;
19814;SDS011;10067;53.092;8.800;2023-04-28T01:02:40;25.27;;;17.50;;
19814;SDS011;10067;53.092;8.800;2023-04-28T01:05:06;27.90;;;19.50;;
19814;SDS011;10067;53.092;8.800;2023-04-28T01:07:33;32.33;;;20.97;;
19814;SDS011;10067;53.092;8.800;2023-04-28T01:10:01;31.23;;;19.70;;
19814;SDS011;10067;53.092;8.800;2023-04-28T01:12:27;30.20;;;19.10;;
19814;SDS011;10067;53.092;8.800;2023-04-28T01:14:54;28.30;;;19.77;;
19814;SDS011;10067;53.092;8.800;2023-04-28T01:17:22;31.53;;;19.47;;
19814;SDS011;10067;53.092;8.800;2023-04-28T01:19:49;27.87;;;18.30;;
19814;SDS011;10067;53.092;8.800;2023-04-28T01:22:17;28.87;;;18.73;;
19814;SDS011;10067;53.092;8.800;2023-04-28T01:24:44;29.63;;;18.27;;
19814;SDS011;10067;53.092;8.800;2023-04-28T01:27:11;30.70;;;18.57;;
19814;SDS011;10067;53.092;8.800;2023-04-28T01:29:37;26.83;;;18.07;;
19814;SDS011;10067;53.092;8.800;2023-04-28T01:32:03;25.63;;;17.93;;
19814;SDS011;10067;53.092;8.800;2023-04-28T01:34:30;28.90;;;18.60;;
19814;SDS011;10067;53.092;8.800;2023-04-28T01:36:56;30.60;;;17.10;;
19814;SDS011;10067;53.092;8.800;2023-04-28T01:39:23;26.87;;;18.17;;
19814;SDS011;10067;53.092;8.800;2023-04-28T01:41:50;31.43;;;18.53;;
19814;SDS011;10067;53.092;8.800;2023-04-28T01:44:17;29.17;;;18.60;;
19814;SDS011;10067;53.092;8.800;2023-04-28T01:46:43;26.03;;;17.60;;
19814;SDS011;10067;53.092;8.800;2023-04-28T01:49:09;28.57;;;18.20;;
19814;SDS011;10067;53.092;8.800;2023-04-28T01:51:36;25.67;;;17.67;;
19814;SDS011;10067;53.092;8.800;2023-04-28T01:54:03;32.87;;;18.20;;
19814;SDS011;10067;53.092;8.800;2023-04-28T01:56:29;27.73;;;17.83;;
19814;SDS011;10067;53.092;8.800;2023-04-28T01:58:57;28.27;;;17.27;;
19814;SDS011;10067;53.092;8.800;2023-04-28T02:01:23;27.87;;;17.43;;
19814;SDS011;10067;53.092;8.800;2023-04-28T02:03:50;28.93;;;17.87;;
19814;SDS011;10067;53.092;8.800;2023-04-28T02:06:16;27.27;;;16.40;;
19814;SDS011;10067;53.092;8.800;2023-04-28T02:08:42;29.67;;;18.87;;
19814;SDS011;10067;53.092;8.800;2023-04-28T02:11:09;24.03;;;15.83;;
19814;SDS011;10067;53.092;8.800;2023-04-28T02:13:35;30.70;;;16.73;;
19814;SDS011;10067;53.092;8.800;2023-04-28T02:16:03;27.10;;;17.00;;
19814;SDS011;10067;53.092;8.800;2023-04-28T02:18:29;25.03;;;17.43;;
19814;SDS011;10067;53.092;8.800;2023-04-28T02:20:56;24.00;;;16.77;;
19814;SDS011;10067;53.092;8.800;2023-04-28T02:23:22;28.17;;;17.07;;
19814;SDS011;10067;53.092;8.800;2023-04-28T02:25:48;25.60;;;16.23;;
19814;SDS011;10067;53.092;8.800;2023-04-28T02:28:15;26.37;;;15.93;;
19814;SDS011;10067;53.092;8.800;2023-04-28T02:30:41;24.03;;;15.60;;
19814;SDS011;10067;53.092;8.800;2023-04-28T02:33:09;20.73;;;15.43;;
19814;SDS011;10067;53.092;8.800;2023-04-28T02:35:36;26.30;;;15.90;;
19814;SDS011;10067;53.092;8.800;2023-04-28T02:38:03;22.57;;;14.23;;
19814;SDS011;10067;53.092;8.800;2023-04-28T02:40:29;23.77;;;14.93;;
19814;SDS011;10067;53.092;8.800;2023-04-28T02:42:55;21.70;;;14.70;;
19814;SDS011;10067;53.092;8.800;2023-04-28T02:45:22;24.67;;;15.23;;
19814;SDS011;10067;53.092;8.800;2023-04-28T02:47:48;25.63;;;14.30;;
19814;SDS011;10067;53.092;8.800;2023-04-28T02:50:16;20.93;;;14.57;;
19814;SDS011;10067;53.092;8.800;2023-04-28T02:52:42;22.90;;;14.70;;
19814;SDS011;10067;53.092;8.800;2023-04-28T02:55:09;19.73;;;13.37;;
19814;SDS011;10067;53.092;8.800;2023-04-28T02:57:35;17.83;;;12.73;;
19814;SDS011;10067;53.092;8.800;2023-04-28T03:00:02;19.63;;;13.57;;
19814;SDS011;10067;53.092;8.800;2023-04-28T03:02:29;21.43;;;14.47;;
19814;SDS011;10067;53.092;8.800;2023-04-28T03:04:55;20.30;;;13.20;;
19814;SDS011;10067;53.092;8.800;2023-04-28T03:07:23;20.67;;;13.73;;
19814;SDS011;10067;53.092;8.800;2023-04-28T03:09:50;18.93;;;12.83;;
19814;SDS011;10067;53.092;8.800;2023-04-28T03:12:16;25.30;;;13.10;;
19814;SDS011;10067;53.092;8.800;2023-04-28T03:14:42;22.43;;;13.57;;
19814;SDS011;10067;53.092;8.800;2023-04-28T03:17:09;19.73;;;13.77;;
19814;SDS011;10067;53.092;8.800;2023-04-28T03:19:35;19.47;;;12.37;;
19814;SDS011;10067;53.092;8.800;2023-04-28T03:22:02;18.90;;;13.40;;
19814;SDS011;10067;53.092;8.800;2023-04-28T03:24:29;21.97;;;13.60;;
19814;SDS011;10067;53.092;8.800;2023-04-28T03:26:56;18.93;;;13.03;;
19814;SDS011;10067;53.092;8.800;2023-04-28T03:29:22;22.53;;;13.13;;
19814;SDS011;10067;53.092;8.800;2023-04-28T03:31:49;22.17;;;12.87;;
19814;SDS011;10067;53.092;8.800;2023-04-28T03:34:16;21.40;;;13.53;;
19814;SDS011;10067;53.092;8.800;2023-04-28T03:36:42;19.00;;;12.83;;
19814;SDS011;10067;53.092;8.800;2023-04-28T03:39:08;17.33;;;11.93;;
19814;SDS011;10067;53.092;8.800;2023-04-28T03:41:36;19.37;;;12.20;;
19814;SDS011;10067;53.092;8.800;2023-04-28T03:44:03;19.03;;;12.83;;
19814;SDS011;10067;53.092;8.800;2023-04-28T03:46:29;16.77;;;12.00;;
19814;SDS011;10067;53.092;8.800;2023-04-28T03:48:55;18.27;;;12.70;;
19814;SDS011;10067;53.092;8.800;2023-04-28T03:51:22;19.50;;;11.57;;
19814;SDS011;10067;53.092;8.800;2023-04-28T03:53:48;19.40;;;12.30;;
19814;SDS011;10067;53.092;8.800;2023-04-28T03:56:15;17.07;;;11.27;;
19814;SDS011;10067;53.092;8.800;2023-04-28T03:58:42;18.63;;;10.83;;
19814;SDS011;10067;53.092;8.800;2023-04-28T04:01:09;16.67;;;11.30;;
19814;SDS011;10067;53.092;8.800;2023-04-28T04:03:35;16.17;;;11.10;;
19814;SDS011;10067;53.092;8.800;2023-04-28T04:06:02;17.53;;;10.90;;
19814;SDS011;10067;53.092;8.800;2023-04-28T04:08:28;16.13;;;11.03;;
19814;SDS011;10067;53.092;8.800;2023-04-28T04:10:55;17.13;;;10.63;;
19814;SDS011;10067;53.092;8.800;2023-04-28T04:13:21;19.93;;;10.67;;
19814;SDS011;10067;53.092;8.800;2023-04-28T04:15:49;16.63;;;10.63;;
19814;SDS011;10067;53.092;8.800;2023-04-28T04:18:16;18.77;;;10.50;;
19814;SDS011;10067;53.092;8.800;2023-04-28T04:20:43;13.37;;;10.23;;
19814;SDS011;10067;53.092;8.800;2023-04-28T04:23:09;16.47;;;10.27;;
19814;SDS011;10067;53.092;8.800;2023-04-28T04:25:35;16.17;;;10.63;;
19814;SDS011;10067;53.092;8.800;2023-04-28T04:28:02;17.17;;;10.10;;
19814;SDS011;10067;53.092;8.800;2023-04-28T04:30:28;15.43;;;9.90;;
19814;SDS011;10067;53.092;8.800;2023-04-28T04:32:56;13.63;;;9.50;;
19814;SDS011;10067;53.092;8.800;2023-04-28T04:35:22;14.13;;;9.37;;
19814;SDS011;10067;53.092;8.800;2023-04-28T04:37:49;14.23;;;10.93;;
19814;SDS011;10067;53.092;8.800;2023-04-28T04:40:15;13.90;;;9.10;;
19814;SDS011;10067;53.092;8.800;2023-04-28T04:42:42;15.33;;;9.40;;
19814;SDS011;10067;53.092;8.800;2023-04-28T04:45:08;14.60;;;10.17;;
19814;SDS011;10067;53.092;8.800;2023-04-28T04:47:34;12.77;;;8.00;;
19814;SDS011;10067;53.092;8.800;2023-04-28T04:50:03;12.93;;;8.83;;
19814;SDS011;10067;53.092;8.800;2023-04-28T04:52:29;15.30;;;8.97;;
19814;SDS011;10067;53.092;8.800;2023-04-28T04:54:55;14.87;;;7.73;;
19814;SDS011;10067;53.092;8.800;2023-04-28T04:57:22;10.60;;;8.33;;
19814;SDS011;10067;53.092;8.800;2023-04-28T04:59:48;15.03;;;8.00;;
19814;SDS011;10067;53.092;8.800;2023-04-28T05:02:18;12.97;;;9.07;;
19814;SDS011;10067;53.092;8.800;2023-04-28T05:04:44;14.43;;;8.53;;
19814;SDS011;10067;53.092;8.800;2023-04-28T05:07:12;15.77;;;8.73;;
19814;SDS011;10067;53.092;8.800;2023-04-28T05:09:38;16.03;;;8.87;;
19814;SDS011;10067;53.092;8.800;2023-04-28T05:12:05;13.93;;;8.13;;
19814;SDS011;10067;53.092;8.800;2023-04-28T05:14:31;13.10;;;7.43;;
19814;SDS011;10067;53.092;8.800;2023-04-28T05:16:57;9.70;;;7.50;;
19814;SDS011;10067;53.092;8.800;2023-04-28T05:19:24;10.60;;;6.60;;
19814;SDS011;10067;53.092;8.800;2023-04-28T05:21:50;12.50;;;7.00;;
19814;SDS011;10067;53.092;8.800;2023-04-28T05:24:20;10.00;;;7.00;;
19814;SDS011;10067;53.092;8.800;2023-04-28T05:26:48;11.00;;;7.60;;
19814;SDS011;10067;53.092;8.800;2023-04-28T05:29:14;11.93;;;7.73;;
19814;SDS011;10067;53.092;8.800;2023-04-28T05:31:40;12.27;;;7.23;;
19814;SDS011;10067;53.092;8.800;2023-04-28T05:34:07;12.17;;;7.07;;
19814;SDS011;10067;53.092;8.800;2023-04-28T05:36:33;11.27;;;7.10;;
19814;SDS011;10067;53.092;8.800;2023-04-28T05:38:59;11.83;;;6.93;;
19814;SDS011;10067;53.092;8.800;2023-04-28T05:41:27;12.90;;;7.37;;
19814;SDS011;10067;53.092;8.800;2023-04-28T05:43:53;9.20;;;6.73;;
19814;SDS011;10067;53.092;8.800;2023-04-28T05:46:20;9.67;;;6.57;;
19814;SDS011;10067;53.092;8.800;2023-04-28T05:48:48;12.00;;;7.47;;
19814;SDS011;10067;53.092;8.800;2023-04-28T05:51:14;11.70;;;6.47;;
19814;SDS011;10067;53.092;8.800;2023-04-28T05:53:41;9.67;;;6.37;;
19814;SDS011;10067;53.092;8.800;2023-04-28T05:56:07;11.63;;;6.53;;
19814;SDS011;10067;53.092;8.800;2023-04-28T05:58:35;13.83;;;6.60;;
19814;SDS011;10067;53.092;8.800;2023-04-28T06:01:02;10.33;;;6.10;;
19814;SDS011;10067;53.092;8.800;2023-04-28T06:03:29;10.47;;;6.57;;
19814;SDS011;10067;53.092;8.800;2023-04-28T06:05:55;11.43;;;6.17;;
19814;SDS011;10067;53.092;8.800;2023-04-28T06:08:21;10.70;;;6.03;;
19814;SDS011;10067;53.092;8.800;2023-04-28T06:10:48;11.03;;;6.20;;
19814;SDS011;10067;53.092;8.800;2023-04-28T06:13:14;10.27;;;5.90;;
19814;SDS011;10067;53.092;8.800;2023-04-28T06:15:42;9.17;;;6.00;;
19814;SDS011;10067;53.092;8.800;2023-04-28T06:18:08;11.15;;;5.95;;
19814;SDS011;10067;53.092;8.800;2023-04-28T06:20:35;10.18;;;5.72;;
19814;SDS011;10067;53.092;8.800;2023-04-28T06:23:01;11.00;;;5.53;;
19814;SDS011;10067;53.092;8.800;2023-04-28T06:25:28;8.85;;;6.10;;
19814;SDS011;10067;53.092;8.800;2023-04-28T06:27:54;13.85;;;5.55;;
19814;SDS011;10067;53.092;8.800;2023-04-28T06:30:21;10.00;;;5.93;;
19814;SDS011;10067;53.092;8.800;2023-04-28T06:32:49;10.10;;;5.78;;
19814;SDS011;10067;53.092;8.800;2023-04-28T06:35:16;9.40;;;5.15;;
19814;SDS011;10067;53.092;8.800;2023-04-28T06:37:42;9.23;;;5.57;;
19814;SDS011;10067;53.092;8.800;2023-04-28T06:40:09;7.72;;;5.00;;
19814;SDS011;10067;53.092;8.800;2023-04-28T06:42:35;12.30;;;5.57;;
19814;SDS011;10067;53.092;8.800;2023-04-28T06:45:02;11.32;;;5.22;;
19814;SDS011;10067;53.092;8.800;2023-04-28T06:47:28;10.80;;;5.43;;
19814;SDS011;10067;53.092;8.800;2023-04-28T06:49:56;7.25;;;5.20;;
19814;SDS011;10067;53.092;8.800;2023-04-28T06:52:22;8.73;;;4.90;;
19814;SDS011;10067;53.092;8.800;2023-04-28T06:54:49;9.93;;;5.15;;
19814;SDS011;10067;53.092;8.800;2023-04-28T06:57:15;8.10;;;5.18;;
19814;SDS011;10067;53.092;8.800;2023-04-28T06:59:42;15.10;;;5.22;;
19814;SDS011;10067;53.092;8.800;2023-04-28T07:02:10;11.32;;;5.10;;
19814;SDS011;10067;53.092;8.800;2023-04-28T07:04:36;7.20;;;4.63;;
19814;SDS011;10067;53.092;8.800;2023-04-28T07:07:04;9.45;;;5.40;;
19814;SDS011;10067;53.092;8.800;2023-04-28T07:09:32;8.77;;;5.43;;
19814;SDS011;10067;53.092;8.800;2023-04-28T07:11:58;12.45;;;5.30;;
19814;SDS011;10067;53.092;8.800;2023-04-28T07:14:24;10.20;;;5.57;;
19814;SDS011;10067;53.092;8.800;2023-04-28T07:16:51;8.20;;;5.35;;
19814;SDS011;10067;53.092;8.800;2023-04-28T07:19:17;13.85;;;5.55;;
19814;SDS011;10067;53.092;8.800;2023-04-28T07:21:44;10.23;;;5.28;;
19814;SDS011;10067;53.092;8.800;2023-04-28T07:24:12;10.07;;;5.65;;
19814;SDS011;10067;53.092;8.800;2023-04-28T07:26:38;11.77;;;5.90;;
19814;SDS011;10067;53.092;8.800;2023-04-28T07:29:05;16.67;;;6.10;;
19814;SDS011;10067;53.092;8.800;2023-04-28T07:31:33;11.52;;;5.25;;
19814;SDS011;10067;53.092;8.800;2023-04-28T07:33:59;8.50;;;5.68;;
19814;SDS011;10067;53.092;8.800;2023-04-28T07:36:26;11.63;;;5.30;;
19814;SDS011;10067;53.092;8.800;2023-04-28T07:38:52;11.00;;;6.13;;
19814;SDS011;10067;53.092;8.800;2023-04-28T07:41:20;12.60;;;5.55;;
19814;SDS011;10067;53.092;8.800;2023-04-28T07:43:48;10.73;;;6.18;;
19814;SDS011;10067;53.092;8.800;2023-04-28T07:46:15;7.70;;;5.43;;
19814;SDS011;10067;53.092;8.800;2023-04-28T07:48:41;12.20;;;5.78;;
19814;SDS011;10067;53.092;8.800;2023-04-28T07:51:07;10.57;;;6.18;;
19814;SDS011;10067;53.092;8.800;2023-04-28T07:53:34;9.98;;;6.05;;
19814;SDS011;10067;53.092;8.800;2023-04-28T07:56:01;9.25;;;5.82;;
19814;SDS011;10067;53.092;8.800;2023-04-28T07:58:28;10.10;;;6.13;;
19814;SDS011;10067;53.092;8.800;2023-04-28T08:00:55;12.00;;;6.50;;
19814;SDS011;10067;53.092;8.800;2023-04-28T08:03:21;9.50;;;5.68;;
19814;SDS011;10067;53.092;8.800;2023-04-28T08:05:48;10.85;;;6.45;;
19814;SDS011;10067;53.092;8.800;2023-04-28T08:08:14;8.18;;;5.82;;
19814;SDS011;10067;53.092;8.800;2023-04-28T08:10:40;16.05;;;6.28;;
19814;SDS011;10067;53.092;8.800;2023-04-28T08:13:07;9.52;;;6.03;;
19814;SDS011;10067;53.092;8.800;2023-04-28T08:15:35;10.75;;;6.47;;
19814;SDS011;10067;53.092;8.800;2023-04-28T08:18:02;12.25;;;6.82;;
19814;SDS011;10067;53.092;8.800;2023-04-28T08:20:28;10.30;;;6.38;;
19814;SDS011;10067;53.092;8.800;2023-04-28T08:22:56;11.50;;;6.63;;
19814;SDS011;10067;53.092;8.800;2023-04-28T08:25:23;10.60;;;6.68;;
19814;SDS011;10067;53.092;8.800;2023-04-28T08:27:49;13.15;;;7.03;;
19814;SDS011;10067;53.092;8.800;2023-04-28T08:30:16;11.70;;;6.93;;
19814;SDS011;10067;53.092;8.800;2023-04-28T08:32:44;11.02;;;7.05;;
19814;SDS011;10067;53.092;8.800;2023-04-28T08:35:10;8.50;;;6.97;;
19814;SDS011;10067;53.092;8.800;2023-04-28T08:37:37;8.65;;;6.65;;
19814;SDS011;10067;53.092;8.800;2023-04-28T08:40:06;11.73;;;7.00;;
19814;SDS011;10067;53.092;8.800;2023-04-28T08:42:34;11.27;;;6.75;;
19814;SDS011;10067;53.092;8.800;2023-04-28T08:45:02;11.25;;;7.10;;
19814;SDS011;10067;53.092;8.800;2023-04-28T08:47:31;10.80;;;6.47;;
19814;SDS011;10067;53.092;8.800;2023-04-28T08:50:00;13.95;;;7.75;;
19814;SDS011;10067;53.092;8.800;2023-04-28T08:52:27;12.93;;;7.22;;
19814;SDS011;10067;53.092;8.800;2023-04-28T08:54:54;11.07;;;7.18;;
19814;SDS011;10067;53.092;8.800;2023-04-28T08:57:21;11.48;;;6.72;;
19814;SDS011;10067;53.092;8.800;2023-04-28T08:59:48;10.15;;;7.43;;
19814;SDS011;10067;53.092;8.800;2023-04-28T09:02:14;13.05;;;7.63;;
19814;SDS011;10067;53.092;8.800;2023-04-28T09:04:41;15.48;;;7.55;;
19814;SDS011;10067;53.092;8.800;2023-04-28T09:07:11;13.23;;;7.43;;
19814;SDS011;10067;53.092;8.800;2023-04-28T09:09:37;11.85;;;7.45;;
19814;SDS011;10067;53.092;8.800;2023-04-28T09:12:04;19.73;;;7.72;;
19814;SDS011;10067;53.092;8.800;2023-04-28T09:14:32;12.68;;;7.97;;
19814;SDS011;10067;53.092;8.800;2023-04-28T09:16:58;18.63;;;7.93;;
19814;SDS011;10067;53.092;8.800;2023-04-28T09:19:33;10.40;;;6.90;;
19814;SDS011;10067;53.092;8.800;2023-04-28T09:22:00;15.32;;;7.55;;
19814;SDS011;10067;53.092;8.800;2023-04-28T09:24:29;13.65;;;7.40;;
19814;SDS011;10067;53.092;8.800;2023-04-28T09:26:55;14.57;;;7.82;;
19814;SDS011;10067;53.092;8.800;2023-04-28T09:29:22;12.88;;;8.05;;
19814;SDS011;10067;53.092;8.800;2023-04-28T09:31:48;13.73;;;7.95;;
19814;SDS011;10067;53.092;8.800;2023-04-28T09:34:15;11.27;;;7.53;;
19814;SDS011;10067;53.092;8.800;2023-04-28T09:36:41;11.25;;;7.18;;
19814;SDS011;10067;53.092;8.800;2023-04-28T09:39:08;9.88;;;7.03;;
19814;SDS011;10067;53.092;8.800;2023-04-28T09:41:36;13.25;;;8.27;;
19814;SDS011;10067;53.092;8.800;2023-04-28T09:44:10;14.88;;;8.48;;
19814;SDS011;10067;53.092;8.800;2023-04-28T09:46:37;15.07;;;7.57;;
19814;SDS011;10067;53.092;8.800;2023-04-28T09:49:04;15.38;;;8.07;;
19814;SDS011;10067;53.092;8.800;2023-04-28T09:51:30;14.80;;;8.02;;
19814;SDS011;10067;53.092;8.800;2023-04-28T09:53:58;10.27;;;8.02;;
19814;SDS011;10067;53.092;8.800;2023-04-28T09:56:25;17.33;;;9.32;;
19814;SDS011;10067;53.092;8.800;2023-04-28T09:58:53;13.45;;;8.75;;
19814;SDS011;10067;53.092;8.800;2023-04-28T10:01:21;12.48;;;8.52;;
19814;SDS011;10067;53.092;8.800;2023-04-28T10:03:48;16.15;;;8.60;;
19814;SDS011;10067;53.092;8.800;2023-04-28T10:06:15;13.15;;;8.55;;
19814;SDS011;10067;53.092;8.800;2023-04-28T10:08:42;15.52;;;9.38;;
19814;SDS011;10067;53.092;8.800;2023-04-28T10:11:09;13.70;;;8.95;;
19814;SDS011;10067;53.092;8.800;2023-04-28T10:13:36;18.10;;;10.38;;
19814;SDS011;10067;53.092;8.800;2023-04-28T10:16:04;17.77;;;9.07;;
19814;SDS011;10067;53.092;8.800;2023-04-28T10:18:32;14.10;;;9.10;;
19814;SDS011;10067;53.092;8.800;2023-04-28T10:20:59;18.50;;;9.23;;
19814;SDS011;10067;53.092;8.800;2023-04-28T10:23:30;15.30;;;8.30;;
19814;SDS011;10067;53.092;8.800;2023-04-28T10:25:59;15.98;;;9.30;;
19814;SDS011;10067;53.092;8.800;2023-04-28T10:28:28;15.18;;;9.30;;
19814;SDS011;10067;53.092;8.800;2023-04-28T10:31:11;14.85;;;9.23;;
19814;SDS011;10067;53.092;8.800;2023-04-28T10:33:38;14.60;;;8.65;;
19814;SDS011;10067;53.092;8.800;2023-04-28T10:36:05;11.32;;;8.75;;
19814;SDS011;10067;53.092;8.800;2023-04-28T10:38:32;12.60;;;8.90;;
19814;SDS011;10067;53.092;8.800;2023-04-28T10:40:59;14.60;;;9.35;;
19814;SDS011;10067;53.092;8.800;2023-04-28T10:43:33;14.40;;;9.10;;
19814;SDS011;10067;53.092;8.800;2023-04-28T10:46:02;13.77;;;8.98;;
19814;SDS011;10067;53.092;8.800;2023-04-28T10:51:31;17.63;;;9.93;;
19814;SDS011;10067;53.092;8.800;2023-04-28T10:54:14;15.38;;;9.57;;
19814;SDS011;10067;53.092;8.800;2023-04-28T10:59:28;18.55;;;9.40;;
19814;SDS011;10067;53.092;8.800;2023-04-28T11:01:54;13.32;;;9.98;;
19814;SDS011;10067;53.092;8.800;2023-04-28T11:04:21;17.13;;;9.50;;
19814;SDS011;10067;53.092;8.800;2023-04-28T11:07:08;15.65;;;9.88;;
19814;SDS011;10067;53.092;8.800;2023-04-28T11:09:47;18.00;;;9.57;;
19814;SDS011;10067;53.092;8.800;2023-04-28T11:12:14;15.60;;;9.18;;
19814;SDS011;10067;53.092;8.800;2023-04-28T11:14:40;13.93;;;9.55;;
19814;SDS011;10067;53.092;8.800;2023-04-28T11:17:07;16.48;;;9.30;;
19814;SDS011;10067;53.092;8.800;2023-04-28T11:19:35;18.55;;;9.68;;
19814;SDS011;10067;53.092;8.800;2023-04-28T11:22:12;15.15;;;9.77;;
19814;SDS011;10067;53.092;8.800;2023-04-28T11:24:38;18.63;;;10.63;;
19814;SDS011;10067;53.092;8.800;2023-04-28T11:27:05;15.93;;;10.65;;
19814;SDS011;10067;53.092;8.800;2023-04-28T11:29:31;14.27;;;9.73;;
19814;SDS011;10067;53.092;8.800;2023-04-28T11:31:59;14.20;;;10.23;;
19814;SDS011;10067;53.092;8.800;2023-04-28T11:34:25;14.23;;;10.55;;
19814;SDS011;10067;53.092;8.800;2023-04-28T11:36:51;13.52;;;10.13;;
19814;SDS011;10067;53.092;8.800;2023-04-28T11:39:25;18.55;;;10.35;;
19814;SDS011;10067;53.092;8.800;2023-04-28T11:41:53;19.15;;;10.98;;
19814;SDS011;10067;53.092;8.800;2023-04-28T11:44:20;16.45;;;10.20;;
19814;SDS011;10067;53.092;8.800;2023-04-28T11:46:47;15.32;;;10.75;;
19814;SDS011;10067;53.092;8.800;2023-04-28T11:49:17;14.85;;;10.60;;
19814;SDS011;10067;53.092;8.800;2023-04-28T11:51:45;15.65;;;10.80;;
19814;SDS011;10067;53.092;8.800;2023-04-28T11:54:15;16.42;;;10.20;;
19814;SDS011;10067;53.092;8.800;2023-04-28T11:56:46;16.58;;;10.90;;
19814;SDS011;10067;53.092;8.800;2023-04-28T11:59:12;22.52;;;11.15;;
19814;SDS011;10067;53.092;8.800;2023-04-28T12:01:46;17.77;;;9.85;;
19814;SDS011;10067;53.092;8.800;2023-04-28T12:04:12;13.40;;;9.77;;
19814;SDS011;10067;53.092;8.800;2023-04-28T12:06:39;15.68;;;10.20;;
19814;SDS011;10067;53.092;8.800;2023-04-28T12:09:15;16.95;;;10.52;;
19814;SDS011;10067;53.092;8.800;2023-04-28T12:11:53;18.45;;;10.60;;
19814;SDS011;10067;53.092;8.800;2023-04-28T12:14:19;16.27;;;9.85;;
19814;SDS011;10067;53.092;8.800;2023-04-28T12:16:46;14.40;;;10.02;;
19814;SDS011;10067;53.092;8.800;2023-04-28T12:19:18;18.25;;;10.95;;
19814;SDS011;10067;53.092;8.800;2023-04-28T12:21:59;16.88;;;10.32;;
19814;SDS011;10067;53.092;8.800;2023-04-28T12:24:26;18.98;;;10.95;;
19814;SDS011;10067;53.092;8.800;2023-04-28T12:26:54;17.10;;;10.07;;
19814;SDS011;10067;53.092;8.800;2023-04-28T12:29:36;17.38;;;9.80;;
19814;SDS011;10067;53.092;8.800;2023-04-28T12:32:03;13.95;;;9.63;;
19814;SDS011;10067;53.092;8.800;2023-04-28T12:34:30;17.65;;;10.75;;
19814;SDS011;10067;53.092;8.800;2023-04-28T12:36:57;22.38;;;10.90;;
19814;SDS011;10067;53.092;8.800;2023-04-28T12:39:23;14.43;;;9.60;;
19814;SDS011;10067;53.092;8.800;2023-04-28T12:41:51;18.88;;;10.82;;
19814;SDS011;10067;53.092;8.800;2023-04-28T12:44:19;15.98;;;11.02;;
19814;SDS011;10067;53.092;8.800;2023-04-28T12:46:45;16.58;;;10.30;;
19814;SDS011;10067;53.092;8.800;2023-04-28T12:49:12;15.32;;;10.00;;
19814;SDS011;10067;53.092;8.800;2023-04-28T12:51:39;13.90;;;10.32;;
19814;SDS011;10067;53.092;8.800;2023-04-28T12:54:05;15.38;;;9.98;;
19814;SDS011;10067;53.092;8.800;2023-04-28T12:56:32;15.38;;;10.02;;
19814;SDS011;10067;53.092;8.800;2023-04-28T12:58:58;14.63;;;9.07;;
19814;SDS011;10067;53.092;8.800;2023-04-28T13:01:28;18.00;;;9.60;;
19814;SDS011;10067;53.092;8.800;2023-04-28T13:03:54;13.73;;;9.25;;
19814;SDS011;10067;53.092;8.800;2023-04-28T13:06:21;13.82;;;10.25;;
19814;SDS011;10067;53.092;8.800;2023-04-28T13:08:47;15.63;;;9.68;;
19814;SDS011;10067;53.092;8.800;2023-04-28T13:11:14;17.08;;;9.52;;
19814;SDS011;10067;53.092;8.800;2023-04-28T13:13:40;16.52;;;9.20;;
19814;SDS011;10067;53.092;8.800;2023-04-28T13:16:08;16.35;;;9.07;;
19814;SDS011;10067;53.092;8.800;2023-04-28T13:18:36;14.40;;;8.45;;
19814;SDS011;10067;53.092;8.800;2023-04-28T13:21:03;13.40;;;7.43;;
19814;SDS011;10067;53.092;8.800;2023-04-28T13:23:29;11.15;;;7.80;;
19814;SDS011;10067;53.092;8.800;2023-04-28T13:25:56;13.00;;;8.30;;
19814;SDS011;10067;53.092;8.800;2023-04-28T13:28:22;11.73;;;7.95;;
19814;SDS011;10067;53.092;8.800;2023-04-28T13:30:49;15.82;;;8.85;;
19814;SDS011;10067;53.092;8.800;2023-04-28T13:33:15;15.57;;;9.75;;
19814;SDS011;10067;53.092;8.800;2023-04-28T13:35:43;14.98;;;9.20;;
19814;SDS011;10067;53.092;8.800;2023-04-28T13:38:09;16.27;;;8.00;;
19814;SDS011;10067;53.092;8.800;2023-04-28T13:40:36;12.48;;;7.65;;
19814;SDS011;10067;53.092;8.800;2023-04-28T13:43:02;17.65;;;7.60;;
19814;SDS011;10067;53.092;8.800;2023-04-28T13:45:29;14.35;;;8.52;;
19814;SDS011;10067;53.092;8.800;2023-04-28T13:47:56;14.23;;;7.93;;
19814;SDS011;10067;53.092;8.800;2023-04-28T13:50:22;18.23;;;8.70;;
19814;SDS011;10067;53.092;8.800;2023-04-28T13:52:50;13.00;;;8.18;;
19814;SDS011;10067;53.092;8.800;2023-04-28T13:55:17;14.25;;;7.90;;
19814;SDS011;10067;53.092;8.800;2023-04-28T13:57:45;15.45;;;9.00;;
19814;SDS011;10067;53.092;8.800;2023-04-28T14:00:12;16.85;;;8.73;;
19814;SDS011;10067;53.092;8.800;2023-04-28T14:02:38;15.27;;;9.30;;
19814;SDS011;10067;53.092;8.800;2023-04-28T14:05:05;13.07;;;9.35;;
19814;SDS011;10067;53.092;8.800;2023-04-28T14:07:32;16.02;;;9.63;;
19814;SDS011;10067;53.092;8.800;2023-04-28T14:10:00;16.35;;;8.90;;
19814;SDS011;10067;53.092;8.800;2023-04-28T14:12:26;15.15;;;9.02;;
19814;SDS011;10067;53.092;8.800;2023-04-28T14:14:53;14.23;;;9.73;;
19814;SDS011;10067;53.092;8.800;2023-04-28T14:17:19;17.40;;;9.18;;
19814;SDS011;10067;53.092;8.800;2023-04-28T14:19:46;16.38;;;10.23;;
19814;SDS011;10067;53.092;8.800;2023-04-28T14:22:12;16.35;;;9.98;;
19814;SDS011;10067;53.092;8.800;2023-04-28T14:24:38;16.48;;;9.82;;
19814;SDS011;10067;53.092;8.800;2023-04-28T14:27:07;16.92;;;9.40;;
19814;SDS011;10067;53.092;8.800;2023-04-28T14:29:34;14.30;;;8.57;;
19814;SDS011;10067;53.092;8.800;2023-04-28T14:32:00;15.15;;;9.15;;
19814;SDS011;10067;53.092;8.800;2023-04-28T14:34:26;16.15;;;9.68;;
19814;SDS011;10067;53.092;8.800;2023-04-28T14:36:54;16.17;;;10.43;;